Time;durP1;ratioP1;P1;durP2;ratioP2;P2;SDS_P1;SDS_P2;PMS_P1;PMS_P2;Temp;Humidity;BMP_temperature;BMP_pressure;BME280_temperature;BME280_humidity;BME280_pressure;Samples;Min_cycle;Max_cycle;Signal;HPM_P1;HPM_P2
2022/06/03 16:36:17;;;;;;;;;;;;;;;22.38;100.00;98569.06;5181493;23;20479;-75
2022/06/03 16:38:52;;;;;;;;;;;;;;;22.29;100.00;98563.34;4918057;29;19953;-74
2022/06/03 16:41:32;;;;;;;;;;;;;;;22.35;100.00;98574.94;4921749;29;19952;-74
2022/06/03 16:44:17;;;;;;;;;;;;;;;22.27;100.00;98562.22;4921236;29;19955;-74
2022/06/03 16:46:47;;;;;;;;;;;;;;;22.35;100.00;98566.38;4921783;29;19945;-74
2022/06/03 16:49:18;;;;;;;;;;;;;;;22.34;100.00;98564.78;4921940;29;19972;-74
2022/06/03 16:51:54;;;;;;;;;;;;;;;22.33;100.00;98568.88;4920477;29;20376;-74
2022/06/03 16:54:47;;;;;;;;;;;;;;;22.27;100.00;98567.94;4918567;29;19953;-74
2022/06/03 16:57:15;;;;;;;;;;;;;;;22.22;100.00;98560.81;4895364;29;19949;-74
2022/06/03 16:59:42;;;;;;;;;;;;;;;22.17;100.00;98559.38;4917856;29;19954;-74
2022/06/03 17:02:24;;;;;;;;;;;;;;;22.16;100.00;98554.13;4925799;29;19962;-74
2022/06/03 17:04:55;;;;;;;;;;;;;;;22.18;100.00;98557.28;4927346;29;20357;-74
2022/06/03 17:07:32;;;;;;;;;;;;;;;22.18;100.00;98560.13;4907760;29;19956;-74
2022/06/03 17:10:08;;;;;;;;;;;;;;;22.17;100.00;98569.97;4915154;29;20296;-74
2022/06/03 17:12:38;;;;;;;;;;;;;;;22.14;100.00;98579.44;4921169;29;19951;-74
2022/06/03 17:15:06;;;;;;;;;;;;;;;22.14;100.00;98576.59;4921691;29;19958;-74
2022/06/03 17:17:34;;;;;;;;;;;;;;;22.12;100.00;98579.91;4920957;29;19950;-74
2022/06/03 17:20:13;;;;;;;;;;;;;;;22.11;100.00;98578.31;4921322;29;19954;-75
2022/06/03 17:22:49;;;;;;;;;;;;;;;22.10;100.00;98587.34;4921262;29;19955;-74
2022/06/03 17:25:36;;;;;;;;;;;;;;;22.11;100.00;98583.22;4921219;29;19945;-74
2022/06/03 17:28:23;;;;;;;;;;;;;;;22.11;100.00;98583.22;4921033;29;20331;-74
2022/06/03 17:30:54;;;;;;;;;;;;;;;22.11;100.00;98580.38;4901354;29;19960;-74
2022/06/03 17:33:27;;;;;;;;;;;;;;;22.13;100.00;98581.47;4920806;29;19951;-74
2022/06/03 17:36:18;;;;;;;;;;;;;;;22.17;100.00;98587.06;4921095;29;19978;-75
2022/06/03 17:39:00;;;;;;;;;;;;;;;22.20;100.00;98581.19;4921521;29;19952;-75
2022/06/03 17:41:39;;;;;;;;;;;;;;;22.23;100.00;98585.97;4917356;29;19951;-74
2022/06/03 17:44:09;;;;;;;;;;;;;;;22.28;100.00;98569.53;4918368;29;19948;-75
2022/06/03 17:46:39;;;;;;;;;;;;;;;22.27;100.00;98576.47;4927215;29;20244;-74
2022/06/03 17:49:16;;;;;;;;;;;;;;;22.24;100.00;98578.22;4917666;29;19967;-74
2022/06/03 17:57:38;;;;;;;;;;;;;;;22.19;100.00;98584.53;4915251;29;19959;-74
2022/06/03 18:00:07;;;;;;;;;;;;;;;22.16;100.00;98591.16;4895360;29;19951;-75
2022/06/03 18:02:57;;;;;;;;;;;;;;;22.08;100.00;98593.50;4922635;29;19949;-74
2022/06/03 18:05:32;;;;;;;;;;;;;;;22.04;100.00;98597.75;4901035;29;20452;-73
2022/06/03 18:08:08;;;;;;;;;;;;;;;21.97;100.00;98598.81;4905392;29;20375;-73
2022/06/03 18:10:35;;;;;;;;;;;;;;;;;;4898840;29;20258;-73
2022/06/03 18:13:08;;;;;;;;;;;;;;;21.84;100.00;98586.69;4905725;29;19955;-73
2022/06/03 18:15:36;;;;;;;;;;;;;;;21.80;100.00;98590.94;4913157;29;19951;-73
2022/06/03 18:18:08;;;;;;;;;;;;;;;21.74;100.00;98593.59;4915823;29;20358;-73
2022/06/03 18:20:36;;;;;;;;;;;;;;;21.70;100.00;98586.47;4906631;29;19955;-73
2022/06/03 18:23:14;;;;;;;;;;;;;;;21.63;100.00;98590.38;4909353;29;19953;-73
2022/06/03 18:26:01;;;;;;;;;;;;;;;21.56;100.00;98587.81;4915542;29;19955;-73
2022/06/03 18:28:31;;;;;;;;;;;;;;;21.55;100.00;98587.00;4905490;29;19953;-73
2022/06/03 18:31:01;;;;;;;;;;;;;;;21.55;100.00;98594.75;4918050;29;19948;-73
2022/06/03 18:33:54;;;;;;;;;;;;;;;21.52;100.00;98590.78;4897795;29;19958;-73
2022/06/03 18:36:24;;;;;;;;;;;;;;;21.51;100.00;98596.94;4908847;29;19970;-74
2022/06/03 18:39:09;;;;;;;;;;;;;;;21.46;100.00;98601.19;4916165;29;20027;-73
2022/06/03 18:41:46;;;;;;;;;;;;;;;21.43;100.00;98604.16;4914006;29;19955;-73
2022/06/03 18:44:32;;;;;;;;;;;;;;;21.39;100.00;98607.16;4911719;29;19954;-73
2022/06/03 18:47:13;;;;;;;;;;;;;;;21.36;100.00;98607.28;4907031;29;19950;-73
2022/06/03 18:49:52;;;;;;;;;;;;;;;21.31;100.00;98617.19;4917008;29;19971;-73
2022/06/03 18:52:29;;;;;;;;;;;;;;;21.28;100.00;98617.31;4923083;29;20210;-73
2022/06/03 18:55:04;;;;;;;;;;;;;;;21.23;100.00;98615.06;4925205;29;19962;-73
2022/06/03 18:57:52;;;;;;;;;;;;;;;21.22;100.00;98608.59;4925252;29;19962;-73
2022/06/03 19:00:29;;;;;;;;;;;;;;;21.18;100.00;98613.59;4924494;29;19943;-73
2022/06/03 19:03:14;;;;;;;;;;;;;;;21.15;100.00;98610.91;4929869;29;19955;-73
2022/06/03 19:05:47;;;;;;;;;;;;;;;21.16;100.00;98606.78;4914219;29;19954;-74
2022/06/03 19:08:34;;;;;;;;;;;;;;;21.18;100.00;98619.28;4917764;29;19959;-74
2022/06/03 19:11:06;;;;;;;;;;;;;;;21.21;100.00;98612.69;4909388;29;19970;-76
2022/06/03 19:13:35;;;;;;;;;;;;;;;21.22;100.00;98619.97;4920419;29;19957;-76
2022/06/03 19:16:09;;;;;;;;;;;;;;;21.23;100.00;98624.41;4919906;29;19954;-75
2022/06/03 19:18:39;;;;;;;;;;;;;;;21.24;100.00;98613.81;4919379;29;20246;-76
2022/06/03 19:21:16;;;;;;;;;;;;;;;21.26;100.00;98609.25;4920967;29;20363;-76
2022/06/03 19:24:06;;;;;;;;;;;;;;;21.27;100.00;98608.00;4919163;29;19957;-75
2022/06/03 19:26:35;;;;;;;;;;;;;;;21.29;100.00;98619.72;4899721;29;19961;-77
2022/06/03 19:29:09;;;;;;;;;;;;;;;21.29;100.00;98610.38;4917588;29;20211;-73
